sensor_id;sensor_type;location;lat;lon;timestamp;temperature;humidity
54158;DHT22;40065;49.894;10.358;2022-08-21T00:03:05;19.30;99.90
54158;DHT22;40065;49.894;10.358;2022-08-21T00:08:08;19.10;99.90
54158;DHT22;40065;49.894;10.358;2022-08-21T00:13:11;19.10;99.90
54158;DHT22;40065;49.894;10.358;2022-08-21T00:18:19;19.20;99.90
54158;DHT22;40065;49.894;10.358;2022-08-21T00:23:21;19.10;99.90
54158;DHT22;40065;49.894;10.358;2022-08-21T00:28:23;19.00;99.90
54158;DHT22;40065;49.894;10.358;2022-08-21T00:33:26;18.90;99.90
54158;DHT22;40065;49.894;10.358;2022-08-21T00:38:28;18.90;99.90
54158;DHT22;40065;49.894;10.358;2022-08-21T00:43:32;18.90;99.90
54158;DHT22;40065;49.894;10.358;2022-08-21T00:48:34;18.80;99.90
54158;DHT22;40065;49.894;10.358;2022-08-21T00:53:39;18.70;99.90
54158;DHT22;40065;49.894;10.358;2022-08-21T00:58:42;18.70;99.90
54158;DHT22;40065;49.894;10.358;2022-08-21T01:03:45;18.70;99.90
54158;DHT22;40065;49.894;10.358;2022-08-21T01:08:47;18.50;99.90
54158;DHT22;40065;49.894;10.358;2022-08-21T01:13:50;18.40;99.90
54158;DHT22;40065;49.894;10.358;2022-08-21T01:18:53;18.00;99.90
54158;DHT22;40065;49.894;10.358;2022-08-21T01:23:56;17.90;99.90
54158;DHT22;40065;49.894;10.358;2022-08-21T01:29:04;17.90;99.90
54158;DHT22;40065;49.894;10.358;2022-08-21T01:34:08;18.00;99.90
54158;DHT22;40065;49.894;10.358;2022-08-21T01:39:10;18.00;99.90
54158;DHT22;40065;49.894;10.358;2022-08-21T01:44:11;17.90;99.90
54158;DHT22;40065;49.894;10.358;2022-08-21T01:49:14;17.70;99.90
54158;DHT22;40065;49.894;10.358;2022-08-21T01:54:17;17.60;99.90
54158;DHT22;40065;49.894;10.358;2022-08-21T01:59:19;17.50;99.90
54158;DHT22;40065;49.894;10.358;2022-08-21T02:04:21;17.60;99.90
54158;DHT22;40065;49.894;10.358;2022-08-21T02:09:23;17.60;99.90
54158;DHT22;40065;49.894;10.358;2022-08-21T02:14:25;17.70;99.90
54158;DHT22;40065;49.894;10.358;2022-08-21T02:19:33;17.90;99.90
54158;DHT22;40065;49.894;10.358;2022-08-21T02:24:41;18.00;99.90
54158;DHT22;40065;49.894;10.358;2022-08-21T02:29:56;18.00;99.90
54158;DHT22;40065;49.894;10.358;2022-08-21T02:34:58;17.80;99.90
54158;DHT22;40065;49.894;10.358;2022-08-21T02:40:01;17.70;99.90
54158;DHT22;40065;49.894;10.358;2022-08-21T02:45:03;17.70;99.90
54158;DHT22;40065;49.894;10.358;2022-08-21T02:50:06;17.60;99.90
54158;DHT22;40065;49.894;10.358;2022-08-21T02:55:09;17.50;99.90
54158;DHT22;40065;49.894;10.358;2022-08-21T03:00:11;17.30;99.90
54158;DHT22;40065;49.894;10.358;2022-08-21T03:05:15;17.30;99.90
54158;DHT22;40065;49.894;10.358;2022-08-21T03:10:19;16.80;99.90
54158;DHT22;40065;49.894;10.358;2022-08-21T03:15:23;16.80;99.90
54158;DHT22;40065;49.894;10.358;2022-08-21T03:20:27;17.00;99.90
54158;DHT22;40065;49.894;10.358;2022-08-21T03:25:30;17.10;99.90
54158;DHT22;40065;49.894;10.358;2022-08-21T03:30:43;17.00;99.90
54158;DHT22;40065;49.894;10.358;2022-08-21T03:35:49;16.80;99.90
54158;DHT22;40065;49.894;10.358;2022-08-21T03:40:53;17.00;99.90
54158;DHT22;40065;49.894;10.358;2022-08-21T03:45:55;16.60;99.90
54158;DHT22;40065;49.894;10.358;2022-08-21T03:50:57;16.70;99.90
54158;DHT22;40065;49.894;10.358;2022-08-21T03:55:59;16.80;99.90
54158;DHT22;40065;49.894;10.358;2022-08-21T04:01:02;16.50;99.90
54158;DHT22;40065;49.894;10.358;2022-08-21T04:06:04;16.60;99.90
54158;DHT22;40065;49.894;10.358;2022-08-21T04:11:07;16.70;99.90
54158;DHT22;40065;49.894;10.358;2022-08-21T04:16:09;16.60;99.90
54158;DHT22;40065;49.894;10.358;2022-08-21T04:21:11;16.70;99.90
54158;DHT22;40065;49.894;10.358;2022-08-21T04:26:14;16.70;99.90
54158;DHT22;40065;49.894;10.358;2022-08-21T04:31:15;16.60;99.90
54158;DHT22;40065;49.894;10.358;2022-08-21T04:36:19;16.40;99.90
54158;DHT22;40065;49.894;10.358;2022-08-21T04:41:25;16.50;99.90
54158;DHT22;40065;49.894;10.358;2022-08-21T04:46:29;16.50;99.90
54158;DHT22;40065;49.894;10.358;2022-08-21T04:51:36;16.80;99.90
54158;DHT22;40065;49.894;10.358;2022-08-21T04:56:42;16.80;99.90
54158;DHT22;40065;49.894;10.358;2022-08-21T05:01:47;16.90;99.90
54158;DHT22;40065;49.894;10.358;2022-08-21T05:06:49;16.90;99.90
54158;DHT22;40065;49.894;10.358;2022-08-21T05:11:52;17.10;99.90
54158;DHT22;40065;49.894;10.358;2022-08-21T05:16:54;17.40;99.90
54158;DHT22;40065;49.894;10.358;2022-08-21T05:21:56;17.60;99.90
54158;DHT22;40065;49.894;10.358;2022-08-21T05:26:59;17.80;99.90
54158;DHT22;40065;49.894;10.358;2022-08-21T05:32:11;17.80;99.90
54158;DHT22;40065;49.894;10.358;2022-08-21T05:37:14;17.80;99.90
54158;DHT22;40065;49.894;10.358;2022-08-21T05:42:15;17.80;99.90
54158;DHT22;40065;49.894;10.358;2022-08-21T05:47:18;17.90;99.90
54158;DHT22;40065;49.894;10.358;2022-08-21T05:52:20;18.10;99.90
54158;DHT22;40065;49.894;10.358;2022-08-21T05:57:22;18.10;99.90
54158;DHT22;40065;49.894;10.358;2022-08-21T06:02:24;18.30;99.90
54158;DHT22;40065;49.894;10.358;2022-08-21T06:07:26;18.50;99.90
54158;DHT22;40065;49.894;10.358;2022-08-21T06:12:28;18.70;99.90
54158;DHT22;40065;49.894;10.358;2022-08-21T06:17:30;18.80;99.90
54158;DHT22;40065;49.894;10.358;2022-08-21T06:22:32;18.70;99.90
54158;DHT22;40065;49.894;10.358;2022-08-21T06:27:34;18.70;99.90
54158;DHT22;40065;49.894;10.358;2022-08-21T06:32:35;18.90;99.90
54158;DHT22;40065;49.894;10.358;2022-08-21T06:37:37;18.80;99.90
54158;DHT22;40065;49.894;10.358;2022-08-21T06:42:39;18.70;99.90
54158;DHT22;40065;49.894;10.358;2022-08-21T06:47:43;18.80;99.90
54158;DHT22;40065;49.894;10.358;2022-08-21T06:52:45;18.70;99.90
54158;DHT22;40065;49.894;10.358;2022-08-21T06:57:47;18.50;99.90
54158;DHT22;40065;49.894;10.358;2022-08-21T07:02:53;19.10;99.90
54158;DHT22;40065;49.894;10.358;2022-08-21T07:07:55;19.20;99.90
54158;DHT22;40065;49.894;10.358;2022-08-21T07:12:58;19.10;99.90
54158;DHT22;40065;49.894;10.358;2022-08-21T07:18:02;19.50;99.90
54158;DHT22;40065;49.894;10.358;2022-08-21T07:23:08;19.50;99.90
54158;DHT22;40065;49.894;10.358;2022-08-21T07:28:10;19.80;99.90
54158;DHT22;40065;49.894;10.358;2022-08-21T07:33:12;20.20;99.90
54158;DHT22;40065;49.894;10.358;2022-08-21T07:38:14;20.50;99.90
54158;DHT22;40065;49.894;10.358;2022-08-21T07:43:16;20.70;99.90
54158;DHT22;40065;49.894;10.358;2022-08-21T07:48:22;21.10;99.90
54158;DHT22;40065;49.894;10.358;2022-08-21T07:53:24;21.20;99.90
54158;DHT22;40065;49.894;10.358;2022-08-21T07:58:26;21.40;99.90
54158;DHT22;40065;49.894;10.358;2022-08-21T08:03:28;21.30;99.90
54158;DHT22;40065;49.894;10.358;2022-08-21T08:08:30;21.40;99.90
54158;DHT22;40065;49.894;10.358;2022-08-21T08:13:38;21.90;99.90
54158;DHT22;40065;49.894;10.358;2022-08-21T08:18:40;22.30;99.90
54158;DHT22;40065;49.894;10.358;2022-08-21T08:23:43;23.00;99.90
54158;DHT22;40065;49.894;10.358;2022-08-21T08:28:46;22.60;99.90
54158;DHT22;40065;49.894;10.358;2022-08-21T08:33:49;23.30;99.40
54158;DHT22;40065;49.894;10.358;2022-08-21T08:38:51;26.90;92.90
54158;DHT22;40065;49.894;10.358;2022-08-21T08:44:03;28.90;89.60
54158;DHT22;40065;49.894;10.358;2022-08-21T08:49:18;30.00;85.60
54158;DHT22;40065;49.894;10.358;2022-08-21T08:54:33;30.40;83.10
54158;DHT22;40065;49.894;10.358;2022-08-21T08:59:41;29.50;82.40
54158;DHT22;40065;49.894;10.358;2022-08-21T09:04:47;29.00;82.00
54158;DHT22;40065;49.894;10.358;2022-08-21T09:10:12;28.40;83.50
54158;DHT22;40065;49.894;10.358;2022-08-21T09:15:33;29.10;84.30
54158;DHT22;40065;49.894;10.358;2022-08-21T09:26:04;30.10;82.00
54158;DHT22;40065;49.894;10.358;2022-08-21T09:31:30;30.90;80.40
54158;DHT22;40065;49.894;10.358;2022-08-21T09:41:42;31.10;77.10
54158;DHT22;40065;49.894;10.358;2022-08-21T09:46:51;30.00;76.20
54158;DHT22;40065;49.894;10.358;2022-08-21T09:51:54;31.00;75.40
54158;DHT22;40065;49.894;10.358;2022-08-21T10:02:33;31.10;73.80
54158;DHT22;40065;49.894;10.358;2022-08-21T10:07:37;31.10;68.10
54158;DHT22;40065;49.894;10.358;2022-08-21T10:12:54;30.80;67.90
54158;DHT22;40065;49.894;10.358;2022-08-21T10:34:40;32.50;62.60
54158;DHT22;40065;49.894;10.358;2022-08-21T10:39:57;32.30;63.10
54158;DHT22;40065;49.894;10.358;2022-08-21T10:45:16;32.30;61.20
54158;DHT22;40065;49.894;10.358;2022-08-21T10:55:59;31.50;59.20
54158;DHT22;40065;49.894;10.358;2022-08-21T11:01:17;32.50;58.30
54158;DHT22;40065;49.894;10.358;2022-08-21T11:06:24;31.50;52.20
54158;DHT22;40065;49.894;10.358;2022-08-21T11:11:49;31.70;53.70
54158;DHT22;40065;49.894;10.358;2022-08-21T11:17:13;30.80;52.90
54158;DHT22;40065;49.894;10.358;2022-08-21T11:22:48;31.30;55.80
54158;DHT22;40065;49.894;10.358;2022-08-21T11:28:05;31.80;53.70
54158;DHT22;40065;49.894;10.358;2022-08-21T11:34:02;32.40;53.70
54158;DHT22;40065;49.894;10.358;2022-08-21T11:39:06;32.70;53.10
54158;DHT22;40065;49.894;10.358;2022-08-21T11:44:47;32.10;53.10
54158;DHT22;40065;49.894;10.358;2022-08-21T11:55:16;32.50;53.50
54158;DHT22;40065;49.894;10.358;2022-08-21T12:00:34;33.00;53.30
54158;DHT22;40065;49.894;10.358;2022-08-21T12:05:40;32.30;54.70
54158;DHT22;40065;49.894;10.358;2022-08-21T12:16:36;33.00;52.50
54158;DHT22;40065;49.894;10.358;2022-08-21T12:27:23;33.00;51.80
54158;DHT22;40065;49.894;10.358;2022-08-21T12:32:45;32.70;51.20
54158;DHT22;40065;49.894;10.358;2022-08-21T12:38:18;32.50;51.20
54158;DHT22;40065;49.894;10.358;2022-08-21T12:43:43;33.00;51.20
54158;DHT22;40065;49.894;10.358;2022-08-21T12:49:01;32.80;49.50
54158;DHT22;40065;49.894;10.358;2022-08-21T12:54:04;32.70;50.70
54158;DHT22;40065;49.894;10.358;2022-08-21T12:59:11;33.50;49.30
54158;DHT22;40065;49.894;10.358;2022-08-21T13:04:17;32.70;50.40
54158;DHT22;40065;49.894;10.358;2022-08-21T13:09:27;33.80;49.70
54158;DHT22;40065;49.894;10.358;2022-08-21T13:14:44;33.90;49.50
54158;DHT22;40065;49.894;10.358;2022-08-21T13:19:59;34.10;46.90
54158;DHT22;40065;49.894;10.358;2022-08-21T13:25:08;34.10;47.70
54158;DHT22;40065;49.894;10.358;2022-08-21T13:30:20;34.50;47.80
54158;DHT22;40065;49.894;10.358;2022-08-21T13:40:38;33.10;47.90
54158;DHT22;40065;49.894;10.358;2022-08-21T13:45:46;32.40;49.60
54158;DHT22;40065;49.894;10.358;2022-08-21T13:50:49;32.00;48.60
54158;DHT22;40065;49.894;10.358;2022-08-21T13:55:51;30.30;52.80
54158;DHT22;40065;49.894;10.358;2022-08-21T14:01:01;30.40;53.20
54158;DHT22;40065;49.894;10.358;2022-08-21T14:06:19;31.20;51.40
54158;DHT22;40065;49.894;10.358;2022-08-21T14:11:23;29.90;52.60
54158;DHT22;40065;49.894;10.358;2022-08-21T14:16:41;29.40;54.20
54158;DHT22;40065;49.894;10.358;2022-08-21T14:21:43;29.00;54.80
54158;DHT22;40065;49.894;10.358;2022-08-21T14:26:51;28.80;54.60
54158;DHT22;40065;49.894;10.358;2022-08-21T14:31:58;29.90;52.00
54158;DHT22;40065;49.894;10.358;2022-08-21T14:37:01;29.90;51.90
54158;DHT22;40065;49.894;10.358;2022-08-21T14:42:03;29.10;53.00
54158;DHT22;40065;49.894;10.358;2022-08-21T14:47:05;29.40;53.00
54158;DHT22;40065;49.894;10.358;2022-08-21T14:52:07;30.50;50.70
54158;DHT22;40065;49.894;10.358;2022-08-21T14:57:10;30.90;49.50
54158;DHT22;40065;49.894;10.358;2022-08-21T15:02:13;31.60;48.50
54158;DHT22;40065;49.894;10.358;2022-08-21T15:07:15;31.90;47.40
54158;DHT22;40065;49.894;10.358;2022-08-21T15:12:17;32.00;46.80
54158;DHT22;40065;49.894;10.358;2022-08-21T15:17:19;31.90;47.20
54158;DHT22;40065;49.894;10.358;2022-08-21T15:22:21;31.60;47.00
54158;DHT22;40065;49.894;10.358;2022-08-21T15:27:29;32.00;45.90
54158;DHT22;40065;49.894;10.358;2022-08-21T15:32:31;31.70;46.40
54158;DHT22;40065;49.894;10.358;2022-08-21T15:37:33;31.20;46.70
54158;DHT22;40065;49.894;10.358;2022-08-21T15:42:38;30.80;47.00
54158;DHT22;40065;49.894;10.358;2022-08-21T15:47:44;30.70;46.80
54158;DHT22;40065;49.894;10.358;2022-08-21T15:52:46;30.30;48.10
54158;DHT22;40065;49.894;10.358;2022-08-21T15:57:51;30.10;48.60
54158;DHT22;40065;49.894;10.358;2022-08-21T16:02:59;29.90;46.80
54158;DHT22;40065;49.894;10.358;2022-08-21T16:08:04;29.60;47.40
54158;DHT22;40065;49.894;10.358;2022-08-21T16:13:15;29.40;48.50
54158;DHT22;40065;49.894;10.358;2022-08-21T16:18:18;29.00;49.30
54158;DHT22;40065;49.894;10.358;2022-08-21T16:23:21;28.90;49.10
54158;DHT22;40065;49.894;10.358;2022-08-21T16:28:22;28.80;48.80
54158;DHT22;40065;49.894;10.358;2022-08-21T16:33:45;28.60;47.80
54158;DHT22;40065;49.894;10.358;2022-08-21T16:38:49;28.50;47.80
54158;DHT22;40065;49.894;10.358;2022-08-21T16:43:52;28.30;47.70
54158;DHT22;40065;49.894;10.358;2022-08-21T16:48:55;28.20;48.20
54158;DHT22;40065;49.894;10.358;2022-08-21T16:53:57;28.20;48.90
54158;DHT22;40065;49.894;10.358;2022-08-21T16:59:00;28.00;49.10
54158;DHT22;40065;49.894;10.358;2022-08-21T17:04:02;27.90;49.10
54158;DHT22;40065;49.894;10.358;2022-08-21T17:09:04;27.90;49.70
54158;DHT22;40065;49.894;10.358;2022-08-21T17:14:09;27.70;49.60
54158;DHT22;40065;49.894;10.358;2022-08-21T17:19:12;27.60;50.10
54158;DHT22;40065;49.894;10.358;2022-08-21T17:24:14;27.50;49.40
54158;DHT22;40065;49.894;10.358;2022-08-21T17:29:18;27.60;49.80
54158;DHT22;40065;49.894;10.358;2022-08-21T17:34:21;27.30;49.80
54158;DHT22;40065;49.894;10.358;2022-08-21T17:39:29;27.20;50.40
54158;DHT22;40065;49.894;10.358;2022-08-21T17:44:31;27.00;50.60
54158;DHT22;40065;49.894;10.358;2022-08-21T17:49:33;26.80;50.70
54158;DHT22;40065;49.894;10.358;2022-08-21T17:54:36;26.60;51.50
54158;DHT22;40065;49.894;10.358;2022-08-21T17:59:39;26.40;51.90
54158;DHT22;40065;49.894;10.358;2022-08-21T18:04:41;26.10;52.90
54158;DHT22;40065;49.894;10.358;2022-08-21T18:09:42;25.80;53.50
54158;DHT22;40065;49.894;10.358;2022-08-21T18:14:44;25.50;54.50
54158;DHT22;40065;49.894;10.358;2022-08-21T18:19:48;25.30;54.80
54158;DHT22;40065;49.894;10.358;2022-08-21T18:24:50;24.90;55.90
54158;DHT22;40065;49.894;10.358;2022-08-21T18:29:55;24.70;56.60
54158;DHT22;40065;49.894;10.358;2022-08-21T18:35:01;24.50;57.00
54158;DHT22;40065;49.894;10.358;2022-08-21T18:40:05;24.40;58.60
54158;DHT22;40065;49.894;10.358;2022-08-21T18:45:11;24.10;59.40
54158;DHT22;40065;49.894;10.358;2022-08-21T18:50:16;23.50;60.30
54158;DHT22;40065;49.894;10.358;2022-08-21T18:55:19;23.20;61.00
54158;DHT22;40065;49.894;10.358;2022-08-21T19:00:26;22.90;62.10
54158;DHT22;40065;49.894;10.358;2022-08-21T19:05:28;22.90;61.60
54158;DHT22;40065;49.894;10.358;2022-08-21T19:10:30;22.80;62.60
54158;DHT22;40065;49.894;10.358;2022-08-21T19:15:33;22.60;63.90
54158;DHT22;40065;49.894;10.358;2022-08-21T19:20:38;22.40;64.30
54158;DHT22;40065;49.894;10.358;2022-08-21T19:25:47;22.30;63.90
54158;DHT22;40065;49.894;10.358;2022-08-21T19:31:21;22.20;64.40
54158;DHT22;40065;49.894;10.358;2022-08-21T19:36:24;22.10;65.50
54158;DHT22;40065;49.894;10.358;2022-08-21T19:41:29;21.70;67.40
54158;DHT22;40065;49.894;10.358;2022-08-21T19:46:35;21.60;68.40
54158;DHT22;40065;49.894;10.358;2022-08-21T19:51:37;21.40;68.60
54158;DHT22;40065;49.894;10.358;2022-08-21T19:56:39;21.40;68.90
54158;DHT22;40065;49.894;10.358;2022-08-21T20:01:42;21.20;69.40
54158;DHT22;40065;49.894;10.358;2022-08-21T20:06:44;21.10;69.70
54158;DHT22;40065;49.894;10.358;2022-08-21T20:11:49;21.00;71.30
54158;DHT22;40065;49.894;10.358;2022-08-21T20:16:52;20.80;72.40
54158;DHT22;40065;49.894;10.358;2022-08-21T20:21:54;20.70;73.10
54158;DHT22;40065;49.894;10.358;2022-08-21T20:27:01;20.70;74.30
54158;DHT22;40065;49.894;10.358;2022-08-21T20:32:08;20.70;74.70
54158;DHT22;40065;49.894;10.358;2022-08-21T20:37:13;20.60;74.00
54158;DHT22;40065;49.894;10.358;2022-08-21T20:42:35;20.60;73.20
54158;DHT22;40065;49.894;10.358;2022-08-21T20:47:37;20.20;75.50
54158;DHT22;40065;49.894;10.358;2022-08-21T20:52:40;20.20;75.60
54158;DHT22;40065;49.894;10.358;2022-08-21T21:03:05;20.10;76.30
54158;DHT22;40065;49.894;10.358;2022-08-21T21:08:33;20.10;77.00
54158;DHT22;40065;49.894;10.358;2022-08-21T21:18:59;19.70;78.70
54158;DHT22;40065;49.894;10.358;2022-08-21T21:24:06;19.70;79.30
54158;DHT22;40065;49.894;10.358;2022-08-21T21:34:37;19.70;79.70
54158;DHT22;40065;49.894;10.358;2022-08-21T21:39:42;19.60;80.30
54158;DHT22;40065;49.894;10.358;2022-08-21T21:45:22;19.60;80.90
54158;DHT22;40065;49.894;10.358;2022-08-21T21:56:02;19.80;82.30
54158;DHT22;40065;49.894;10.358;2022-08-21T22:01:13;19.70;82.20
54158;DHT22;40065;49.894;10.358;2022-08-21T22:22:35;19.50;84.80
54158;DHT22;40065;49.894;10.358;2022-08-21T22:27:41;19.50;85.10
54158;DHT22;40065;49.894;10.358;2022-08-21T22:32:47;19.40;85.60
54158;DHT22;40065;49.894;10.358;2022-08-21T22:37:57;19.30;86.50
54158;DHT22;40065;49.894;10.358;2022-08-21T22:43:29;19.20;87.50
54158;DHT22;40065;49.894;10.358;2022-08-21T22:48:36;19.30;87.70
54158;DHT22;40065;49.894;10.358;2022-08-21T22:53:51;19.20;88.90
54158;DHT22;40065;49.894;10.358;2022-08-21T22:59:06;19.10;90.10
54158;DHT22;40065;49.894;10.358;2022-08-21T23:04:23;19.00;90.50
54158;DHT22;40065;49.894;10.358;2022-08-21T23:09:45;19.00;91.20
54158;DHT22;40065;49.894;10.358;2022-08-21T23:14:48;19.00;91.40
54158;DHT22;40065;49.894;10.358;2022-08-21T23:20:24;18.90;92.20
54158;DHT22;40065;49.894;10.358;2022-08-21T23:25:49;18.90;92.20
54158;DHT22;40065;49.894;10.358;2022-08-21T23:31:15;18.90;92.60
54158;DHT22;40065;49.894;10.358;2022-08-21T23:48:19;18.90;93.50
54158;DHT22;40065;49.894;10.358;2022-08-21T23:58:52;18.80;94.20
